Time;durP1;ratioP1;P1;durP2;ratioP2;P2;SDS_P1;SDS_P2;PMS_P1;PMS_P2;Temp;Humidity;BMP_temperature;BMP_pressure;BME280_temperature;BME280_humidity;BME280_pressure;Samples;Min_cycle;Max_cycle;Signal;HPM_P1;HPM_P2
2021/12/08 00:04:18;;;;;;;45.47;19.88;;;-3.10;99.90;;;;;;10438147;28;20053;-67
2021/12/08 00:09:34;;;;;;;51.05;21.80;;;-3.10;99.90;;;;;;10438466;28;20048;-67
2021/12/08 00:14:41;;;;;;;44.55;18.98;;;-3.10;99.90;;;;;;10438051;28;20099;-66
2021/12/08 00:19:46;;;;;;;46.35;19.15;;;-3.20;99.90;;;;;;10437975;28;20444;-67
2021/12/08 00:24:51;;;;;;;51.70;22.00;;;-3.20;99.90;;;;;;10457151;28;20053;-66
2021/12/08 00:29:56;;;;;;;49.67;18.42;;;-3.20;99.90;;;;;;10454455;28;20493;-67
2021/12/08 00:35:02;;;;;;;46.08;18.73;;;-3.10;99.90;;;;;;10455449;28;20532;-67
2021/12/08 00:40:09;;;;;;;52.92;22.05;;;-3.20;99.90;;;;;;10457654;28;20067;-67
2021/12/08 00:45:15;;;;;;;56.83;20.25;;;-3.20;99.90;;;;;;10462885;28;20567;-66
2021/12/08 00:50:24;;;;;;;53.42;21.77;;;-3.20;99.90;;;;;;10462362;28;20087;-66
2021/12/08 00:55:28;;;;;;;40.70;17.63;;;-3.30;99.90;;;;;;10461901;28;20049;-67
2021/12/08 01:00:39;;;;;;;44.30;18.80;;;-3.30;99.90;;;;;;10444892;28;20052;-66
2021/12/08 01:05:49;;;;;;;46.83;20.40;;;-3.30;99.90;;;;;;10461899;28;20041;-66
2021/12/08 01:10:57;;;;;;;40.08;15.43;;;-3.30;99.90;;;;;;10462568;28;20405;-66
2021/12/08 01:16:03;;;;;;;40.28;16.30;;;-3.30;99.90;;;;;;10475591;28;20037;-67
2021/12/08 01:21:09;;;;;;;40.35;14.75;;;-3.20;99.90;;;;;;10427077;28;20471;-66
2021/12/08 01:26:13;;;;;;;37.40;15.95;;;-3.10;99.90;;;;;;10443783;28;20060;-67
2021/12/08 01:31:18;;;;;;;35.20;15.07;;;-3.10;99.90;;;;;;10442499;28;20571;-67
2021/12/08 01:36:23;;;;;;;33.00;13.57;;;-3.10;99.90;;;;;;10442542;28;20049;-67
2021/12/08 01:41:27;;;;;;;34.78;13.52;;;-3.10;99.90;;;;;;10443244;28;20048;-67
2021/12/08 01:46:33;;;;;;;35.95;12.73;;;-3.10;99.90;;;;;;10460378;28;20053;-66
2021/12/08 01:51:38;;;;;;;31.75;12.88;;;-3.10;99.90;;;;;;10459168;28;20049;-66
2021/12/08 01:56:43;;;;;;;35.53;13.45;;;-3.10;99.90;;;;;;10459658;28;20045;-67
2021/12/08 02:01:47;;;;;;;35.60;11.85;;;-3.10;99.90;;;;;;10456071;28;20044;-66
2021/12/08 02:06:56;;;;;;;26.95;11.63;;;-3.20;99.90;;;;;;10426423;28;20405;-66
2021/12/08 02:12:03;;;;;;;32.50;12.90;;;-3.20;99.90;;;;;;10441226;28;20490;-66
2021/12/08 02:17:10;;;;;;;37.15;14.35;;;-3.20;99.90;;;;;;10457433;28;20056;-68
2021/12/08 02:22:15;;;;;;;33.85;13.15;;;-3.30;99.90;;;;;;10455260;28;20045;-66
2021/12/08 02:27:20;;;;;;;29.77;13.93;;;-3.30;99.90;;;;;;10456985;28;20090;-66
2021/12/08 02:46:36;;;;;;;36.70;14.82;;;-3.30;99.90;;;;;;10458084;28;20417;-66
2021/12/08 02:48:37;;;;;;;40.35;15.48;;;-3.30;99.90;;;;;;10457339;28;20383;-66
2021/12/08 02:53:42;;;;;;;39.30;16.08;;;-3.30;99.90;;;;;;10457661;28;20107;-66
2021/12/08 02:58:48;;;;;;;41.33;15.40;;;-3.20;99.90;;;;;;10457461;28;20551;-66
2021/12/08 03:03:53;;;;;;;61.83;22.27;;;-3.20;99.90;;;;;;10456513;28;20053;-66
2021/12/08 03:08:58;;;;;;;53.33;21.83;;;-3.20;99.90;;;;;;10457114;28;20429;-66
2021/12/08 03:14:10;;;;;;;48.17;19.75;;;-3.20;99.90;;;;;;10456488;28;20135;-66
2021/12/08 03:19:15;;;;;;;49.97;21.15;;;-3.10;99.90;;;;;;10406231;28;20045;-66
2021/12/08 03:24:31;;;;;;;53.33;19.70;;;-3.20;99.90;;;;;;10456095;28;20053;-66
2021/12/08 03:34:51;;;;;;;54.63;22.23;;;-3.40;99.90;;;;;;10456523;28;20067;-66
2021/12/08 03:39:58;;;;;;;52.05;20.45;;;-3.50;99.90;;;;;;10438533;28;20049;-66
2021/12/08 03:45:09;;;;;;;51.50;19.55;;;-3.50;99.90;;;;;;10456306;28;20088;-66
2021/12/08 03:50:15;;;;;;;;;;;-3.50;99.90;;;;;;10456098;28;20053;-66
2021/12/08 03:55:20;;;;;;;54.30;21.08;;;-3.40;99.90;;;;;;10456247;28;19931;-66
2021/12/08 04:00:29;;;;;;;56.63;19.60;;;-3.50;99.90;;;;;;10437954;28;20049;-66
2021/12/08 04:05:55;;;;;;;49.85;19.92;;;-3.50;99.90;;;;;;10455266;28;20457;-67
2021/12/08 04:11:05;;;;;;;52.47;19.80;;;-3.50;99.90;;;;;;10455773;28;20115;-67
2021/12/08 04:16:12;;;;;;;60.40;22.63;;;-3.40;99.90;;;;;;10460324;28;20053;-66
2021/12/08 04:21:17;;;;;;;58.78;21.88;;;-3.50;99.90;;;;;;10463656;28;20041;-66
2021/12/08 04:26:28;;;;;;;47.42;20.75;;;-3.50;99.90;;;;;;10464432;28;20052;-66
2021/12/08 04:31:36;;;;;;;51.08;20.40;;;-3.50;99.90;;;;;;10462597;28;20421;-66
2021/12/08 04:36:46;;;;;;;49.05;19.23;;;-3.40;99.90;;;;;;10462835;28;20103;-66
2021/12/08 04:41:58;;;;;;;46.35;16.30;;;-3.50;99.90;;;;;;10444626;28;20049;-66
2021/12/08 04:47:26;;;;;;;52.05;19.17;;;-3.60;99.90;;;;;;10462235;28;20049;-66
2021/12/08 04:52:46;;;;;;;41.85;17.85;;;-3.60;99.90;;;;;;10461926;28;20426;-67
2021/12/08 05:08:52;;;;;;;38.88;15.90;;;-3.70;99.90;;;;;;10422449;28;20076;-67
2021/12/08 05:14:09;;;;;;;39.42;15.77;;;-3.90;99.90;;;;;;10461111;28;20099;-67
2021/12/08 05:19:17;;;;;;;43.00;15.20;;;-3.80;99.90;;;;;;10461475;28;20107;-66
2021/12/08 05:24:28;;;;;;;32.20;13.50;;;-3.80;99.90;;;;;;10460201;28;20045;-66
2021/12/08 05:29:42;;;;;;;31.67;12.85;;;-3.80;99.90;;;;;;10460924;28;20045;-66
2021/12/08 05:34:47;;;;;;;30.52;12.95;;;-3.80;99.90;;;;;;10461311;28;20049;-66
2021/12/08 05:39:54;;;;;;;34.97;13.43;;;-3.90;99.90;;;;;;10460847;28;20041;-67
2021/12/08 05:45:11;;;;;;;52.53;22.25;;;-3.80;99.90;;;;;;10460128;28;20452;-66
2021/12/08 05:50:26;;;;;;;42.80;20.25;;;-3.80;99.90;;;;;;10460260;28;20075;-67
2021/12/08 05:55:32;;;;;;;39.25;17.48;;;-3.90;99.90;;;;;;10459620;28;20060;-66
2021/12/08 06:00:41;;;;;;;41.42;18.02;;;-4.00;99.90;;;;;;10459300;28;20076;-66
2021/12/08 06:05:47;;;;;;;45.47;18.35;;;-4.00;99.90;;;;;;10473442;28;20402;-66
2021/12/08 06:10:52;;;;;;;43.58;17.83;;;-4.00;99.90;;;;;;10458936;28;20411;-67
2021/12/08 06:15:57;;;;;;;44.75;19.33;;;-3.90;99.90;;;;;;10441407;28;20473;-66
2021/12/08 06:21:04;;;;;;;51.70;21.35;;;-3.90;99.90;;;;;;10458351;28;20110;-66
2021/12/08 06:26:12;;;;;;;55.17;21.88;;;-3.90;99.90;;;;;;10458751;28;20108;-66
2021/12/08 06:31:19;;;;;;;61.38;24.50;;;-3.90;99.90;;;;;;10458256;28;20057;-68
2021/12/08 06:36:29;;;;;;;55.47;23.05;;;-3.90;99.90;;;;;;10457989;28;20049;-66
2021/12/08 06:41:39;;;;;;;55.05;22.42;;;-4.00;99.90;;;;;;10458488;28;20044;-66
2021/12/08 06:46:45;;;;;;;;;;;-4.10;99.90;;;;;;10457751;28;20106;-66
2021/12/08 06:51:58;;;;;;;59.08;23.73;;;-4.10;99.90;;;;;;10457283;28;19920;-67
2021/12/08 06:57:21;;;;;;;79.28;27.20;;;-4.00;99.90;;;;;;10457673;28;20044;-66
2021/12/08 07:07:49;;;;;;;78.13;27.77;;;-4.10;99.90;;;;;;10456341;28;20083;-66
2021/12/08 07:13:14;;;;;;;90.28;31.17;;;-4.00;99.90;;;;;;10457227;28;20382;-66
2021/12/08 07:18:27;;;;;;;90.28;31.55;;;-4.00;99.90;;;;;;10457544;28;20045;-66
2021/12/08 07:23:37;;;;;;;83.45;29.90;;;-4.10;99.90;;;;;;10456150;28;20048;-66
2021/12/08 07:28:44;;;;;;;71.88;27.08;;;-4.10;99.90;;;;;;10456030;28;20049;-66
2021/12/08 07:33:49;;;;;;;72.35;27.95;;;-4.00;99.90;;;;;;10457221;28;20080;-66
2021/12/08 07:38:56;;;;;;;74.93;27.30;;;-4.10;99.90;;;;;;10455758;28;20067;-66
2021/12/08 07:44:06;;;;;;;74.97;30.30;;;-4.10;99.90;;;;;;10455911;28;20057;-66
2021/12/08 07:49:18;;;;;;;75.07;29.02;;;-4.00;99.90;;;;;;10457837;28;20398;-66
2021/12/08 07:54:23;;;;;;;72.72;29.55;;;-4.00;99.90;;;;;;10464497;28;20053;-66
2021/12/08 07:59:29;;;;;;;79.20;29.08;;;-4.10;99.90;;;;;;10464768;28;20045;-66
2021/12/08 08:04:40;;;;;;;57.70;23.52;;;-4.10;99.90;;;;;;10463925;28;20048;-66
2021/12/08 08:09:49;;;;;;;75.00;29.40;;;-4.00;99.90;;;;;;10463623;28;20118;-66
2021/12/08 08:15:00;;;;;;;76.65;29.55;;;-3.90;99.90;;;;;;10463355;28;20095;-66
2021/12/08 08:20:10;;;;;;;66.15;27.75;;;-3.90;99.90;;;;;;10463256;28;20064;-67
2021/12/08 08:25:19;;;;;;;67.85;27.13;;;-3.90;99.90;;;;;;10463820;28;20482;-67
2021/12/08 08:30:29;;;;;;;68.78;28.23;;;-3.90;99.90;;;;;;10463297;28;20045;-67
2021/12/08 08:35:39;;;;;;;62.05;25.15;;;-3.90;99.90;;;;;;10462675;28;20049;-67
2021/12/08 08:40:52;;;;;;;69.93;27.08;;;-3.90;99.90;;;;;;10462653;28;20099;-67
2021/12/08 08:46:09;;;;;;;68.68;24.75;;;-4.00;99.90;;;;;;10462235;28;20099;-67
2021/12/08 08:51:23;;;;;;;71.35;22.95;;;-4.00;99.90;;;;;;10462281;28;20099;-66
2021/12/08 08:56:33;;;;;;;63.30;24.17;;;-3.90;99.90;;;;;;10446184;28;20539;-66
2021/12/08 09:01:43;;;;;;;67.72;25.42;;;-3.90;99.90;;;;;;10461595;28;20095;-66
2021/12/08 09:06:51;;;;;;;74.80;28.08;;;-3.90;99.90;;;;;;10461537;28;20094;-67
2021/12/08 09:12:25;;;;;;;83.70;29.48;;;-3.90;99.90;;;;;;10461364;28;20110;-66
2021/12/08 09:17:38;;;;;;;75.90;27.83;;;-3.90;99.90;;;;;;10443598;28;20049;-67
2021/12/08 09:23:10;;;;;;;76.35;27.77;;;-3.90;99.90;;;;;;10443435;28;20448;-66
2021/12/08 09:28:34;;;;;;;83.90;28.63;;;-3.90;99.90;;;;;;10442864;28;20049;-66
2021/12/08 09:33:50;;;;;;;88.68;31.75;;;-3.90;99.90;;;;;;10460795;28;20111;-66
2021/12/08 09:39:08;;;;;;;84.10;30.38;;;-3.90;99.90;;;;;;10460549;28;20041;-66
2021/12/08 09:44:18;;;;;;;91.72;31.48;;;-4.00;99.90;;;;;;10460538;28;20482;-66
2021/12/08 09:49:25;;;;;;;91.22;31.50;;;-4.00;99.90;;;;;;10460332;28;20076;-66
2021/12/08 09:54:30;;;;;;;83.32;29.58;;;-4.00;99.90;;;;;;10459740;28;20052;-66
2021/12/08 09:59:37;;;;;;;81.47;29.15;;;-4.00;99.90;;;;;;10459813;28;20041;-66
2021/12/08 10:04:42;;;;;;;67.53;26.50;;;-3.90;99.90;;;;;;10459874;28;20048;-66
2021/12/08 10:09:49;;;;;;;75.50;27.83;;;-4.00;99.90;;;;;;10459065;28;20048;-66
2021/12/08 10:14:57;;;;;;;68.57;27.17;;;-4.00;99.90;;;;;;10458058;28;20102;-66
2021/12/08 10:20:31;;;;;;;88.95;29.88;;;-4.20;99.90;;;;;;10458448;28;20049;-66
2021/12/08 10:26:04;;;;;;;94.53;33.08;;;-4.20;99.90;;;;;;10436160;28;20052;-66
2021/12/08 10:31:14;;;;;;;88.88;30.35;;;-4.10;99.90;;;;;;10456663;28;20061;-66
2021/12/08 10:36:42;;;;;;;90.25;30.92;;;-4.10;99.90;;;;;;10457616;28;20068;-66
2021/12/08 10:41:58;;;;;;;94.53;33.65;;;-4.10;99.90;;;;;;10457696;28;20049;-66
2021/12/08 10:47:36;;;;;;;85.22;31.80;;;-4.00;99.90;;;;;;10457536;28;20409;-66
2021/12/08 10:58:28;;;;;;;100.97;33.33;;;-4.20;99.90;;;;;;10456980;28;20049;-66
2021/12/08 11:03:35;;;;;;;102.75;37.67;;;-4.20;99.90;;;;;;10457557;28;20447;-66
2021/12/08 11:08:47;;;;;;;87.38;30.95;;;-4.10;99.90;;;;;;10456762;28;20402;-66
2021/12/08 11:13:58;;;;;;;93.25;33.67;;;-4.20;99.90;;;;;;10457106;28;20102;-66
2021/12/08 11:19:10;;;;;;;84.72;30.98;;;-4.20;99.90;;;;;;10471320;28;20094;-66
2021/12/08 11:24:32;;;;;;;91.70;34.13;;;-4.30;99.90;;;;;;10456845;28;20470;-66
2021/12/08 11:29:42;;;;;;;90.05;32.85;;;-4.20;99.90;;;;;;10456143;28;20083;-66
2021/12/08 11:34:49;;;;;;;87.28;32.05;;;-4.10;99.90;;;;;;10456523;28;20457;-66
2021/12/08 11:40:00;;;;;;;76.72;31.80;;;-4.10;99.90;;;;;;10456330;28;20045;-66
2021/12/08 11:45:17;;;;;;;91.25;33.08;;;-4.10;99.90;;;;;;10456424;28;20111;-66
2021/12/08 11:50:22;;;;;;;84.35;31.48;;;-4.10;99.90;;;;;;10438164;28;20049;-66
2021/12/08 11:55:29;;;;;;;92.35;32.17;;;-4.20;99.90;;;;;;10455341;28;20049;-66
2021/12/08 12:00:38;;;;;;;85.43;30.13;;;-4.20;99.90;;;;;;10455539;28;20452;-66
2021/12/08 12:05:46;;;;;;;;;;;-4.20;99.90;;;;;;10455963;28;20072;-66
2021/12/08 12:10:54;;;;;;;80.40;29.25;;;-4.20;99.90;;;;;;10455858;28;19920;-66
2021/12/08 12:15:59;;;;;;;82.63;30.92;;;-4.10;99.90;;;;;;10455322;28;20126;-66
2021/12/08 12:21:37;;;;;;;79.82;29.08;;;-4.20;99.90;;;;;;10455105;28;20045;-66
2021/12/08 12:26:50;;;;;;;67.78;27.65;;;-4.20;99.90;;;;;;10436170;28;20472;-67
2021/12/08 12:32:02;;;;;;;77.72;29.13;;;-4.10;99.90;;;;;;10455168;28;20107;-66
2021/12/08 12:37:16;;;;;;;79.95;29.90;;;-4.10;99.90;;;;;;10460323;28;20048;-67
2021/12/08 12:42:22;;;;;;;85.50;34.60;;;-4.20;99.90;;;;;;10462285;28;20091;-67
2021/12/08 12:47:30;;;;;;;74.88;29.65;;;-4.20;99.90;;;;;;10461919;28;20049;-67
2021/12/08 12:52:42;;;;;;;73.32;27.40;;;-4.20;99.90;;;;;;10461905;28;20080;-67
2021/12/08 12:58:01;;;;;;;75.40;29.95;;;-4.30;99.90;;;;;;10461693;28;20107;-66
2021/12/08 13:03:08;;;;;;;81.47;29.27;;;-4.30;99.90;;;;;;10461559;28;20049;-66
2021/12/08 13:08:27;;;;;;;61.90;25.42;;;-4.20;99.90;;;;;;10444119;28;20045;-66
2021/12/08 13:13:50;;;;;;;66.15;26.73;;;-4.30;99.90;;;;;;10461084;28;20099;-66
2021/12/08 13:19:00;;;;;;;73.63;29.60;;;-4.40;99.90;;;;;;10461052;28;20049;-66
2021/12/08 13:24:25;;;;;;;90.35;35.58;;;-4.40;99.90;;;;;;10460813;28;20410;-66
2021/12/08 13:29:46;;;;;;;91.70;33.58;;;-4.50;99.90;;;;;;10460973;28;20057;-66
2021/12/08 13:34:57;;;;;;;64.07;27.60;;;-4.50;99.90;;;;;;10460974;28;20066;-67
2021/12/08 13:40:09;;;;;;;90.93;33.50;;;-4.50;99.90;;;;;;10460688;28;20041;-66
2021/12/08 13:45:41;;;;;;;76.05;31.38;;;-4.60;99.90;;;;;;10459910;28;20440;-66
2021/12/08 13:50:46;;;;;;;495.05;121.03;;;-4.60;99.90;;;;;;10460226;28;20547;-66
2021/12/08 13:55:59;;;;;;;84.15;30.60;;;-4.60;99.90;;;;;;10441925;28;20103;-66
2021/12/08 14:01:05;;;;;;;79.97;33.38;;;-4.70;99.90;;;;;;10459060;28;20075;-66
2021/12/08 14:06:12;;;;;;;67.63;29.35;;;-4.70;99.90;;;;;;10425620;28;20056;-66
2021/12/08 14:11:19;;;;;;;65.18;28.20;;;-4.70;99.90;;;;;;10458980;28;20397;-67
2021/12/08 14:16:25;;;;;;;70.97;28.00;;;-4.70;99.90;;;;;;10459498;28;20045;-66
2021/12/08 14:21:33;;;;;;;72.38;28.52;;;-4.80;99.90;;;;;;10458339;28;20103;-66
2021/12/08 14:26:58;;;;;;;63.25;27.13;;;-4.90;99.90;;;;;;10458944;28;20494;-66
2021/12/08 14:32:03;;;;;;;64.13;25.60;;;-5.00;99.90;;;;;;10459227;28;20579;-66
2021/12/08 14:37:11;;;;;;;64.28;27.17;;;-5.10;99.90;;;;;;10459502;28;20482;-67
2021/12/08 14:42:27;;;;;;;72.15;27.55;;;-5.10;99.90;;;;;;10457750;28;20048;-67
2021/12/08 14:47:37;;;;;;;63.65;26.88;;;-5.20;99.90;;;;;;10458024;28;20037;-66
2021/12/08 14:52:42;;;;;;;64.97;26.83;;;-5.20;99.90;;;;;;10458160;28;20045;-67
2021/12/08 14:57:52;;;;;;;67.97;28.17;;;-5.20;99.90;;;;;;10457438;28;20398;-67
2021/12/08 15:03:11;;;;;;;75.93;31.67;;;-5.20;99.90;;;;;;10457558;28;20543;-67
2021/12/08 15:08:21;;;;;;;78.75;31.65;;;-5.10;99.90;;;;;;10439707;28;20440;-67
2021/12/08 15:13:30;;;;;;;74.70;28.55;;;-5.00;99.90;;;;;;10439419;28;20087;-67
2021/12/08 15:18:35;;;;;;;77.93;30.45;;;-5.00;99.90;;;;;;10457134;28;20040;-67
2021/12/08 15:23:49;;;;;;;75.45;29.63;;;-4.90;99.90;;;;;;10456837;28;20094;-67
2021/12/08 15:28:54;;;;;;;73.47;29.95;;;-4.90;99.90;;;;;;10457615;28;20055;-67
2021/12/08 15:33:59;;;;;;;75.35;29.38;;;-5.00;99.90;;;;;;10456500;28;20099;-67
2021/12/08 15:39:04;;;;;;;72.93;30.67;;;-4.90;99.90;;;;;;10455951;28;20394;-67
2021/12/08 15:44:12;;;;;;;77.88;32.47;;;-4.90;99.90;;;;;;10455812;28;20053;-67
2021/12/08 15:49:27;;;;;;;78.25;31.17;;;-4.80;99.90;;;;;;10455723;28;20547;-67
2021/12/08 15:54:35;;;;;;;141.98;47.75;;;-4.90;99.90;;;;;;10457154;28;20099;-67
2021/12/08 15:59:46;;;;;;;80.40;31.58;;;-4.80;99.90;;;;;;10455661;28;20044;-67
2021/12/08 16:05:02;;;;;;;;;;;-4.80;99.90;;;;;;10456509;28;20041;-66
2021/12/08 16:10:28;;;;;;;87.78;34.38;;;-4.90;99.90;;;;;;10441166;28;19927;-67
2021/12/08 16:15:41;;;;;;;95.03;35.53;;;-4.90;99.90;;;;;;10445980;28;20049;-67
2021/12/08 16:20:46;;;;;;;78.20;30.73;;;-4.80;99.90;;;;;;10463258;28;20098;-67
2021/12/08 16:25:52;;;;;;;89.53;32.42;;;-4.70;99.90;;;;;;10446068;28;20108;-67
2021/12/08 16:30:57;;;;;;;78.05;31.75;;;-4.70;99.90;;;;;;10445137;28;20049;-66
2021/12/08 16:36:02;;;;;;;87.38;32.72;;;-4.70;99.90;;;;;;10463343;28;20044;-67
2021/12/08 16:46:30;;;;;;;86.00;32.17;;;-4.50;99.90;;;;;;10463053;28;20040;-67
2021/12/08 16:51:36;;;;;;;84.28;34.05;;;-4.50;99.90;;;;;;10445238;28;20049;-67
2021/12/08 16:56:41;;;;;;;85.88;32.85;;;-4.40;99.90;;;;;;10461949;28;20053;-67
2021/12/08 17:01:50;;;;;;;83.45;32.13;;;-4.40;99.90;;;;;;10462226;28;20040;-67
2021/12/08 17:06:56;;;;;;;80.15;30.33;;;-4.30;99.90;;;;;;10461718;28;20052;-67
2021/12/08 17:12:01;;;;;;;98.38;37.00;;;-4.40;99.90;;;;;;10461821;28;20067;-67
2021/12/08 17:17:06;;;;;;;121.28;39.03;;;-4.30;99.90;;;;;;10462411;28;20037;-67
2021/12/08 17:22:11;;;;;;;102.35;38.00;;;-4.20;99.90;;;;;;10460733;28;20460;-67
2021/12/08 17:27:17;;;;;;;87.97;29.95;;;-4.20;99.90;;;;;;10461369;28;20488;-67
2021/12/08 17:32:22;;;;;;;88.03;31.30;;;-4.10;99.90;;;;;;10460542;28;20457;-67
2021/12/08 17:37:28;;;;;;;84.53;31.33;;;-4.20;99.90;;;;;;10457314;28;20126;-67
2021/12/08 17:42:38;;;;;;;87.05;34.63;;;-4.20;99.90;;;;;;10428403;28;20049;-67
2021/12/08 17:47:44;;;;;;;94.78;33.40;;;-4.10;99.90;;;;;;10402410;28;20041;-67
2021/12/08 17:52:53;;;;;;;81.28;30.67;;;-4.00;99.90;;;;;;10429421;28;20041;-66
2021/12/08 17:58:08;;;;;;;;;;;-4.10;99.90;;;;;;10439315;28;20441;-66
2021/12/08 18:03:20;;;;;;;91.78;32.05;;;-4.00;99.90;;;;;;10451507;28;19971;-66
2021/12/08 18:08:25;;;;;;;80.18;31.35;;;-4.10;99.90;;;;;;10438246;28;20041;-66
2021/12/08 18:13:31;;;;;;;101.85;36.10;;;-4.10;99.90;;;;;;10437697;28;20076;-67
2021/12/08 18:18:36;;;;;;;88.25;32.65;;;-4.10;99.90;;;;;;10403539;28;20037;-66
2021/12/08 18:23:45;;;;;;;89.88;34.13;;;-4.00;99.90;;;;;;10401589;28;20045;-66
2021/12/08 18:28:50;;;;;;;85.40;31.50;;;-4.00;99.90;;;;;;10384143;28;20049;-67
2021/12/08 18:33:55;;;;;;;75.28;29.83;;;-3.90;99.90;;;;;;10416503;28;20046;-67
2021/12/08 18:39:05;;;;;;;89.63;33.05;;;-3.90;99.90;;;;;;10417183;28;20041;-67
2021/12/08 18:44:10;;;;;;;82.32;30.27;;;-3.90;99.90;;;;;;10417017;28;20041;-67
2021/12/08 18:49:19;;;;;;;87.35;33.17;;;-3.90;99.90;;;;;;10416463;28;20049;-67
2021/12/08 18:54:24;;;;;;;81.80;31.67;;;-3.90;99.90;;;;;;10400181;28;20049;-67
2021/12/08 18:59:29;;;;;;;95.53;34.08;;;-3.90;99.90;;;;;;10416485;28;20049;-67
2021/12/08 19:04:34;;;;;;;87.20;30.50;;;-3.80;99.90;;;;;;10382226;28;20045;-67
2021/12/08 19:09:39;;;;;;;80.35;30.52;;;-3.80;99.90;;;;;;10416005;28;20091;-66
2021/12/08 19:14:44;;;;;;;85.22;32.15;;;-3.70;99.90;;;;;;10398606;28;20041;-66
2021/12/08 19:19:49;;;;;;;75.75;29.95;;;-3.80;99.90;;;;;;10397924;28;20045;-67
2021/12/08 19:25:00;;;;;;;93.60;35.17;;;-3.80;99.90;;;;;;10415186;28;20075;-66
2021/12/08 19:30:06;;;;;;;90.00;34.78;;;-3.80;99.90;;;;;;10415157;28;20099;-66
2021/12/08 19:35:11;;;;;;;87.25;32.10;;;-3.70;99.90;;;;;;10415359;28;20095;-67
2021/12/08 19:40:16;;;;;;;88.03;32.55;;;-3.70;99.90;;;;;;10415482;28;20053;-67
2021/12/08 19:45:24;;;;;;;85.53;31.55;;;-3.70;99.90;;;;;;10414788;28;20099;-67
2021/12/08 19:50:30;;;;;;;102.05;32.50;;;-3.60;99.90;;;;;;10416146;28;20103;-66
2021/12/08 19:55:36;;;;;;;88.47;29.83;;;-3.60;99.90;;;;;;10413410;28;20053;-67
2021/12/08 20:00:43;;;;;;;81.03;31.42;;;-3.60;99.90;;;;;;10414336;28;20050;-67
2021/12/08 20:05:48;;;;;;;88.88;32.72;;;-3.60;99.90;;;;;;10414637;28;20050;-67
2021/12/08 20:11:06;;;;;;;98.10;33.85;;;-3.60;99.90;;;;;;10365437;28;20088;-67
2021/12/08 20:16:14;;;;;;;90.75;32.22;;;-3.60;99.90;;;;;;10411129;28;20067;-67
2021/12/08 20:21:19;;;;;;;83.15;31.83;;;-3.50;99.90;;;;;;10410938;28;20053;-67
2021/12/08 20:26:24;;;;;;;86.22;32.85;;;-3.50;99.90;;;;;;10380950;28;20055;-68
2021/12/08 20:31:32;;;;;;;95.50;35.35;;;-3.50;99.90;;;;;;10412065;28;20054;-68
2021/12/08 20:36:39;;;;;;;;;;;-3.60;99.90;;;;;;10380910;28;20120;-67
2021/12/08 20:41:44;;;;;;;82.55;30.70;;;-3.60;99.90;;;;;;10364879;28;19971;-67
2021/12/08 20:47:06;;;;;;;82.13;31.25;;;-3.70;99.90;;;;;;10366679;28;20038;-67
2021/12/08 20:52:11;;;;;;;84.15;32.65;;;-3.80;99.90;;;;;;10413853;28;20045;-67
2021/12/08 20:57:21;;;;;;;86.57;34.30;;;-3.80;99.90;;;;;;10385361;28;20037;-67
2021/12/08 21:02:26;;;;;;;76.05;30.17;;;-4.00;99.90;;;;;;10403626;28;20049;-67
2021/12/08 21:07:45;;;;;;;74.60;29.60;;;-4.10;99.90;;;;;;10421064;28;20064;-67
2021/12/08 21:12:52;;;;;;;71.68;27.52;;;-4.40;99.90;;;;;;10402872;28;20045;-67
2021/12/08 21:17:57;;;;;;;82.65;31.20;;;-4.50;99.90;;;;;;10420444;28;20045;-66
2021/12/08 21:23:11;;;;;;;78.00;28.60;;;-4.70;99.90;;;;;;10433830;28;20042;-66
2021/12/08 21:28:19;;;;;;;77.07;27.95;;;-4.80;99.90;;;;;;10419997;28;20100;-66
2021/12/08 21:33:30;;;;;;;74.75;29.13;;;-4.90;99.90;;;;;;10402062;28;20049;-67
2021/12/08 21:38:43;;;;;;;83.05;29.25;;;-5.00;99.90;;;;;;10433934;28;20092;-67
2021/12/08 21:43:50;;;;;;;78.63;27.85;;;-5.10;99.90;;;;;;10418465;28;20045;-67
2021/12/08 21:48:55;;;;;;;78.13;28.58;;;-5.10;99.90;;;;;;10402011;28;20091;-67
2021/12/08 21:54:04;;;;;;;73.53;27.38;;;-5.20;99.90;;;;;;10419165;28;20042;-67
2021/12/08 21:59:12;;;;;;;73.65;28.10;;;-5.20;99.90;;;;;;10416574;28;20482;-66
2021/12/08 22:04:17;;;;;;;79.28;29.80;;;-5.20;99.90;;;;;;10415187;28;20080;-66
2021/12/08 22:09:22;;;;;;;75.07;28.42;;;-5.30;99.90;;;;;;10431665;28;20049;-67
2021/12/08 22:14:27;;;;;;;78.63;28.88;;;-5.40;99.90;;;;;;10442375;28;20057;-67
2021/12/08 22:19:33;;;;;;;76.93;28.33;;;-5.40;99.90;;;;;;10459808;28;20041;-66
2021/12/08 22:24:38;;;;;;;79.93;27.02;;;-5.40;99.90;;;;;;10422910;28;20054;-66
2021/12/08 22:29:43;;;;;;;74.32;27.33;;;-5.40;99.90;;;;;;10417363;28;20057;-66
2021/12/08 22:34:47;;;;;;;74.57;27.13;;;-5.40;99.90;;;;;;10417002;28;20053;-66
2021/12/08 22:39:53;;;;;;;75.40;26.55;;;-5.50;99.90;;;;;;10399666;28;20103;-66
2021/12/08 22:44:58;;;;;;;75.95;27.92;;;-5.50;99.90;;;;;;10417307;28;20041;-67
2021/12/08 22:50:06;;;;;;;78.38;26.83;;;-5.50;99.90;;;;;;10416938;28;20053;-67
2021/12/08 22:55:12;;;;;;;72.97;28.05;;;-5.60;99.90;;;;;;10416231;28;20111;-66
2021/12/08 23:00:20;;;;;;;77.47;26.27;;;-5.60;99.90;;;;;;10416193;28;20057;-66
2021/12/08 23:05:26;;;;;;;78.90;26.15;;;-5.70;99.90;;;;;;10416884;28;20474;-67
2021/12/08 23:10:35;;;;;;;64.88;25.48;;;-5.70;99.90;;;;;;10398643;28;20465;-66
2021/12/08 23:15:40;;;;;;;75.37;28.33;;;-5.90;99.90;;;;;;10416420;28;20049;-66
2021/12/08 23:20:54;;;;;;;82.20;26.92;;;-5.80;99.90;;;;;;10415506;28;20046;-66
2021/12/08 23:25:59;;;;;;;74.47;26.30;;;-5.90;99.90;;;;;;10415862;28;20099;-67
2021/12/08 23:31:05;;;;;;;80.50;26.08;;;-5.90;99.90;;;;;;10415453;28;20395;-66
2021/12/08 23:36:23;;;;;;;74.57;26.63;;;-5.90;99.90;;;;;;10414958;28;20057;-66
2021/12/08 23:41:38;;;;;;;79.25;26.75;;;-5.80;99.90;;;;;;10414798;28;20123;-67
2021/12/08 23:46:43;;;;;;;76.70;26.70;;;-5.90;99.90;;;;;;10415779;28;20445;-67
2021/12/08 23:51:48;;;;;;;81.53;27.02;;;-5.90;99.90;;;;;;10397526;28;20049;-66
2021/12/08 23:56:54;;;;;;;74.50;26.17;;;-5.90;99.90;;;;;;10415165;28;20095;-67
